This is the latest recevied weather packets stored in our database for station/object N0SWP-3. If no packets are shown the sender has not sent any weather packets the latest 10 day(s).
| Time | Temp. | Humidity | Pressure | Rain* | Wind** | Luminosity | Snow |
|---|---|---|---|---|---|---|---|
| 1777789623 | 7.78° C | 69% | 1018.1 hPa | 0 mm | - | - | - |
| 1777789398 | 7.78° C | 70% | 1018.2 hPa | 0 mm | - | - | - |
| 1777788364 | 7.78° C | 72% | 1018.3 hPa | 0 mm | - | - | - |
| 1777788004 | 7.78° C | 73% | 1018.4 hPa | 0 mm | - | - | - |
| 1777785844 | 7.22° C | 74% | 1018.6 hPa | 0 mm | - | - | - |
| 1777785797 | 7.22° C | 74% | 1018.6 hPa | 0 mm | - | - | - |
| 1777784944 | 7.22° C | 74% | 1018.7 hPa | 0 mm | - | - | - |
| 1777784044 | 7.78° C | 72% | 1018.7 hPa | 0 mm | - | - | - |
| 1777783324 | 7.78° C | 74% | 1018.7 hPa | 0 mm | - | - | - |
| 1777782377 | 7.78° C | 74% | 1018.7 hPa | 0 mm | - | - | - |
| 1777780983 | 8.33° C | 72% | 1019 hPa | 0 mm | - | - | - |
| 1777779678 | 8.89° C | 68% | 1019.2 hPa | 0 mm | - | - | - |
| 1777778464 | 8.89° C | 65% | 1019.3 hPa | 0 mm | - | - | - |
| 1777777384 | 10° C | 64% | 1019.4 hPa | 0 mm | - | - | - |
| 1777776844 | 10° C | 60% | 1019.4 hPa | 0 mm | - | - | - |
| 1777775044 | 11.67° C | 53% | 1019.3 hPa | 0 mm | - | - | - |
| 1777772884 | 12.78° C | 51% | 1019.2 hPa | 0 mm | - | - | - |
| 1777772343 | 13.33° C | 50% | 1019.1 hPa | 0 mm | - | - | - |
| 1777772119 | 13.89° C | 48% | 1019.2 hPa | 0 mm | - | - | - |
| 1777771623 | 14.44° C | 45% | 1019.1 hPa | 0 mm | - | - | - |
| 1777770183 | 17.22° C | 37% | 1019.2 hPa | 0 mm | - | - | - |
| 1777770003 | 17.78° C | 36% | 1019.2 hPa | 0 mm | - | - | - |
| 1777769417 | 18.89° C | 34% | 1019.2 hPa | 0 mm | - | - | - |
| 1777768744 | 18.89° C | 33% | 1019.2 hPa | 0 mm | - | - | - |
| 1777768204 | 18.89° C | 31% | 1019.2 hPa | 0 mm | - | - | - |
* Rain latest hour (hover to see other rain measurements)
** Current wind speed in m/s (hover to see current wind gust speed)